createdAt,value
2018-08-08T03:54:39.376Z,8.10
2018-08-08T03:55:39.373Z,14.10
2018-08-08T03:57:32.733Z,12.90
2018-08-08T03:58:32.719Z,16.00
2018-08-08T04:00:25.639Z,14.40
2018-08-08T04:01:25.655Z,11.60
2018-08-08T04:03:19.000Z,14.00
2018-08-08T04:04:19.009Z,16.20
2018-08-08T04:06:11.914Z,12.40
2018-08-08T04:07:11.932Z,16.20
2018-08-08T04:09:05.278Z,10.80
2018-08-08T04:10:05.286Z,10.40
2018-08-08T04:11:58.619Z,12.20
2018-08-08T04:12:58.635Z,14.30
2018-08-08T04:14:51.975Z,10.40
2018-08-08T04:15:51.979Z,9.90
2018-08-08T04:17:45.361Z,10.60
2018-08-08T04:18:45.335Z,9.90
2018-08-08T04:20:38.249Z,10.50
2018-08-08T04:21:38.255Z,10.10
2018-08-08T04:23:31.613Z,9.40
2018-08-08T04:24:31.623Z,10.20
2018-08-08T04:26:24.966Z,12.70
2018-08-08T04:27:24.979Z,10.90
2018-08-08T04:29:18.319Z,9.60
2018-08-08T04:30:18.332Z,10.40
2018-08-08T04:32:11.675Z,9.80
2018-08-08T04:33:11.690Z,9.30
2018-08-08T04:35:05.038Z,8.80
2018-08-08T04:36:05.041Z,11.80
2018-08-08T04:37:58.373Z,13.00
2018-08-08T04:38:58.394Z,9.50
2018-08-08T04:40:51.739Z,10.40
2018-08-08T04:41:51.745Z,8.40
2018-08-08T04:43:45.142Z,10.20
2018-08-08T04:44:45.158Z,8.90
2018-08-08T04:46:38.492Z,10.50
2018-08-08T04:47:38.511Z,9.90
2018-08-08T04:49:31.858Z,7.60
2018-08-08T04:50:31.866Z,10.80
2018-08-08T04:52:25.197Z,9.70
2018-08-08T04:53:25.218Z,11.70
2018-08-08T04:55:18.576Z,9.60
2018-08-08T04:56:18.582Z,8.30
2018-08-08T04:58:11.919Z,8.80
2018-08-08T04:59:11.937Z,9.50
2018-08-08T05:01:05.292Z,10.00
2018-08-08T05:02:05.301Z,8.50
2018-08-08T05:03:58.650Z,10.50
2018-08-08T05:04:58.664Z,12.70
2018-08-08T05:06:52.011Z,8.40
2018-08-08T05:07:52.055Z,10.10
2018-08-08T05:09:45.379Z,8.10
2018-08-08T05:10:45.390Z,10.50
2018-08-08T05:12:38.720Z,8.50
2018-08-08T05:13:38.743Z,9.20
2018-08-08T05:15:32.084Z,9.80
2018-08-08T05:16:32.085Z,8.40
2018-08-08T05:18:25.418Z,9.60
2018-08-08T05:19:25.437Z,8.90
2018-08-08T05:21:18.368Z,7.70
2018-08-08T05:22:18.372Z,9.90
2018-08-08T05:24:11.306Z,8.90
2018-08-08T05:25:11.319Z,9.00
2018-08-08T05:27:04.639Z,9.20
2018-08-08T05:28:04.656Z,8.00
2018-08-08T05:29:58.007Z,9.50
2018-08-08T05:30:58.018Z,8.80
2018-08-08T05:32:50.933Z,7.60
2018-08-08T05:33:50.952Z,8.50
2018-08-08T05:35:44.294Z,8.00
2018-08-08T05:36:44.304Z,7.30
2018-08-08T05:38:37.641Z,7.80
2018-08-08T05:39:37.657Z,8.80
2018-08-08T05:41:31.006Z,8.20
2018-08-08T05:42:31.014Z,10.80
2018-08-08T05:44:24.380Z,8.40
2018-08-08T05:45:24.389Z,7.70
2018-08-08T05:47:17.715Z,6.90
2018-08-08T05:48:17.756Z,7.20
2018-08-08T05:50:11.080Z,6.00
2018-08-08T05:51:11.090Z,9.30
2018-08-08T05:53:04.426Z,7.30
2018-08-08T05:54:04.445Z,7.60
2018-08-08T05:55:57.834Z,6.70
2018-08-08T05:56:57.846Z,7.80
2018-08-08T05:58:51.179Z,9.70
2018-08-08T05:59:51.197Z,6.50
2018-08-08T06:01:44.538Z,8.30
2018-08-08T06:02:44.549Z,7.80
2018-08-08T06:04:37.915Z,6.90
2018-08-08T06:05:37.913Z,7.40
2018-08-08T06:07:31.242Z,7.30
2018-08-08T06:08:31.258Z,7.90
2018-08-08T06:10:24.616Z,8.30
2018-08-08T06:11:24.628Z,7.80
2018-08-08T06:13:17.974Z,6.70
2018-08-08T06:14:18.043Z,8.50
2018-08-08T06:16:11.348Z,7.40
2018-08-08T06:17:11.353Z,7.80
2018-08-08T06:19:04.689Z,7.10
2018-08-08T06:20:04.707Z,8.50
2018-08-08T06:21:58.041Z,7.90
2018-08-08T06:22:58.051Z,6.70
2018-08-08T06:24:51.407Z,7.10
2018-08-08T06:25:51.413Z,8.10
2018-08-08T06:27:44.752Z,7.90
2018-08-08T06:28:44.775Z,7.20
2018-08-08T06:30:38.149Z,6.60
2018-08-08T06:31:38.133Z,8.00
2018-08-08T06:33:31.471Z,6.40
2018-08-08T06:34:31.491Z,7.90
2018-08-08T06:36:24.846Z,8.00
2018-08-08T06:37:24.852Z,6.70
2018-08-08T06:39:18.191Z,6.40
2018-08-08T06:40:18.261Z,6.00
2018-08-08T06:42:11.629Z,6.40
2018-08-08T06:43:11.639Z,7.40
2018-08-08T06:45:05.031Z,7.90
2018-08-08T06:46:05.050Z,7.50
2018-08-08T06:47:58.396Z,7.10
2018-08-08T06:48:58.405Z,7.40
2018-08-08T06:50:51.339Z,7.10
2018-08-08T06:51:51.345Z,6.20
2018-08-08T06:53:44.677Z,5.60
2018-08-08T06:54:44.688Z,8.50
2018-08-08T06:56:38.078Z,7.30
2018-08-08T06:57:38.036Z,6.30
2018-08-08T06:59:31.379Z,6.80
2018-08-08T07:00:31.465Z,6.30
2018-08-08T07:02:24.762Z,6.90
2018-08-08T07:03:24.772Z,7.20
2018-08-08T07:05:18.122Z,6.60
2018-08-08T07:06:18.140Z,6.50
2018-08-08T07:08:11.480Z,7.20
2018-08-08T07:09:11.489Z,7.30
2018-08-08T07:11:04.860Z,6.90
2018-08-08T07:12:04.871Z,5.90
2018-08-08T07:13:58.275Z,5.80
2018-08-08T07:14:58.235Z,7.70
2018-08-08T07:16:51.592Z,6.10
2018-08-08T07:17:51.604Z,7.20
2018-08-08T07:19:44.937Z,6.90
2018-08-08T07:20:44.948Z,6.80
2018-08-08T07:22:38.294Z,6.90
2018-08-08T07:23:38.303Z,6.30
2018-08-08T07:25:31.748Z,6.30
2018-08-08T07:26:31.664Z,5.50
2018-08-08T07:28:25.019Z,6.40
2018-08-08T07:29:25.022Z,5.50
2018-08-08T07:31:18.386Z,5.70
2018-08-08T07:32:18.463Z,5.70
2018-08-08T07:34:11.726Z,6.10
2018-08-08T07:35:11.742Z,6.40
2018-08-08T07:37:05.087Z,6.10
2018-08-08T07:38:05.097Z,6.40
2018-08-08T07:39:58.515Z,7.90
2018-08-08T07:40:58.462Z,5.90
2018-08-08T07:42:51.805Z,6.30
2018-08-08T07:43:51.814Z,6.40
2018-08-08T07:45:45.170Z,5.70
2018-08-08T07:46:45.159Z,7.10
2018-08-08T07:48:38.527Z,6.90
2018-08-08T07:49:38.533Z,5.90
2018-08-08T07:51:31.881Z,5.70
2018-08-08T07:52:31.891Z,5.90
2018-08-08T07:54:25.250Z,6.50
2018-08-08T07:55:25.268Z,5.50
2018-08-08T07:57:18.665Z,5.80
2018-08-08T07:58:18.777Z,5.50
2018-08-08T08:00:12.029Z,5.90
2018-08-08T08:01:12.043Z,5.60
2018-08-08T08:03:05.396Z,6.80
2018-08-08T08:04:05.407Z,5.60
2018-08-08T08:05:58.331Z,6.00
2018-08-08T08:06:58.347Z,5.60
2018-08-08T08:08:51.707Z,8.70
2018-08-08T08:09:51.718Z,6.10
2018-08-08T08:11:47.019Z,6.40
2018-08-08T08:12:47.053Z,8.00
2018-08-08T08:14:40.267Z,5.70
2018-08-08T08:15:40.311Z,4.40
2018-08-08T08:17:33.445Z,5.40
2018-08-08T08:18:33.451Z,5.60
2018-08-08T08:20:26.584Z,6.00
2018-08-08T08:21:26.594Z,7.50
2018-08-08T08:23:21.292Z,5.50
2018-08-08T08:24:21.240Z,7.50
2018-08-08T08:26:14.359Z,7.30
2018-08-08T08:27:14.382Z,6.30
2018-08-08T08:29:09.055Z,7.60
2018-08-08T08:30:09.029Z,7.40
2018-08-08T08:32:02.218Z,8.40
2018-08-08T08:33:02.181Z,7.60
2018-08-08T08:34:56.833Z,6.50
2018-08-08T08:35:56.904Z,7.20
2018-08-08T08:37:50.001Z,6.50
2018-08-08T08:38:50.033Z,7.40
2018-08-08T08:40:43.225Z,9.10
2018-08-08T08:41:43.241Z,6.90
2018-08-08T08:43:36.503Z,5.70
2018-08-08T08:44:36.512Z,6.90
2018-08-08T08:46:29.637Z,9.10
2018-08-08T08:47:29.655Z,5.90
2018-08-08T08:49:22.807Z,7.00
2018-08-08T08:50:22.851Z,7.80
2018-08-08T08:51:22.834Z,7.40
2018-08-08T08:52:22.857Z,6.90
2018-08-08T08:53:22.882Z,7.40
2018-08-08T08:54:22.909Z,8.50
2018-08-08T08:55:22.930Z,9.00
2018-08-08T08:56:22.945Z,6.90
2018-08-08T08:57:22.966Z,7.20
2018-08-08T08:58:22.989Z,9.30
2018-08-08T08:59:23.009Z,7.30
2018-08-08T09:00:23.027Z,7.40
2018-08-08T09:01:23.051Z,6.60
2018-08-08T09:02:23.092Z,7.00
2018-08-08T09:03:23.095Z,6.90
2018-08-08T09:04:23.138Z,8.10
2018-08-08T09:05:23.141Z,8.60
2018-08-08T09:06:23.162Z,6.60
2018-08-08T09:07:23.206Z,7.10
2018-08-08T09:08:23.204Z,7.10
2018-08-08T09:09:23.224Z,7.10
2018-08-08T09:10:23.249Z,7.20
2018-08-08T09:11:23.291Z,8.10
2018-08-08T09:12:23.334Z,8.20
2018-08-08T09:13:23.308Z,6.50
2018-08-08T09:14:23.329Z,7.30
2018-08-08T09:15:23.355Z,7.70
2018-08-08T09:16:23.376Z,7.80
2018-08-08T09:17:23.404Z,9.50
2018-08-08T09:18:23.418Z,6.90
2018-08-08T09:19:23.443Z,6.40
2018-08-08T09:20:23.459Z,5.90
2018-08-08T09:21:23.486Z,8.20
2018-08-08T09:22:23.509Z,8.30
2018-08-08T09:23:23.530Z,6.80
2018-08-08T09:24:23.548Z,7.60
2018-08-08T09:25:23.573Z,7.50
2018-08-08T09:26:23.591Z,7.30
2018-08-08T09:27:23.613Z,7.10
2018-08-08T09:28:23.654Z,7.20
2018-08-08T09:29:23.656Z,6.00
2018-08-08T09:30:23.739Z,7.10
2018-08-08T09:31:23.699Z,6.40
2018-08-08T09:32:23.722Z,5.90
2018-08-08T09:33:23.743Z,6.90
2018-08-08T09:34:23.761Z,5.60
2018-08-08T09:35:23.787Z,6.90
2018-08-08T09:36:23.806Z,6.90
2018-08-08T09:37:23.837Z,6.70
2018-08-08T09:38:23.850Z,6.90
2018-08-08T09:39:23.870Z,6.40
2018-08-08T09:40:23.968Z,5.90
2018-08-08T09:41:23.920Z,7.20
2018-08-08T09:42:23.933Z,6.20
2018-08-08T09:43:23.961Z,6.90
2018-08-08T09:44:23.983Z,6.90
2018-08-08T09:45:24.003Z,6.60
2018-08-08T09:46:24.023Z,6.80
2018-08-08T09:47:24.087Z,6.80
2018-08-08T09:48:24.066Z,6.10
2018-08-08T09:49:24.088Z,5.90
2018-08-08T09:50:24.115Z,6.70
2018-08-08T09:51:24.139Z,7.80
2018-08-08T09:52:24.154Z,6.50
2018-08-08T09:53:24.175Z,7.50
2018-08-08T09:54:24.197Z,5.60
2018-08-08T09:55:24.228Z,6.10
2018-08-08T09:56:24.300Z,5.60
2018-08-08T09:57:24.264Z,6.40
2018-08-08T09:58:24.283Z,5.10
2018-08-08T09:59:24.311Z,6.60
2018-08-08T10:00:24.332Z,6.90
2018-08-08T10:01:24.349Z,7.20
2018-08-08T10:02:24.374Z,7.50
2018-08-08T10:03:24.443Z,5.10
2018-08-08T10:04:24.416Z,5.90
2018-08-08T10:05:24.436Z,5.00
2018-08-08T10:06:24.455Z,5.90
2018-08-08T10:07:24.479Z,5.80
2018-08-08T10:08:24.503Z,6.20
2018-08-08T10:09:24.527Z,6.30
2018-08-08T10:10:24.549Z,6.00
2018-08-08T10:11:24.577Z,7.60
2018-08-08T10:12:24.588Z,6.80
2018-08-08T10:13:24.624Z,6.70
2018-08-08T10:14:24.633Z,5.90
2018-08-08T10:15:24.663Z,6.80
2018-08-08T10:16:24.687Z,7.40
2018-08-08T10:17:24.696Z,6.00
2018-08-08T10:18:24.723Z,4.90
2018-08-08T10:19:24.752Z,8.10
2018-08-08T10:20:24.765Z,5.50
2018-08-08T10:21:24.788Z,5.90
2018-08-08T10:22:24.812Z,6.40
2018-08-08T10:23:24.841Z,5.10
2018-08-08T10:24:24.895Z,6.60
2018-08-08T10:25:24.869Z,5.40
2018-08-08T10:26:24.900Z,6.30
2018-08-08T10:27:24.918Z,6.30
2018-08-08T10:28:24.941Z,6.20
2018-08-08T10:29:24.960Z,6.30
2018-08-08T10:30:24.996Z,6.60
2018-08-08T10:31:25.008Z,6.30
2018-08-08T10:32:25.047Z,6.90
2018-08-08T10:33:25.072Z,7.60
2018-08-08T10:34:25.069Z,6.30
2018-08-08T10:35:25.094Z,5.70
2018-08-08T10:36:25.113Z,6.60
2018-08-08T10:37:25.150Z,5.50
2018-08-08T10:38:25.156Z,5.70
2018-08-08T10:39:25.180Z,6.30
2018-08-08T10:40:25.204Z,7.00
2018-08-08T10:41:25.225Z,6.20
2018-08-08T10:42:25.244Z,6.30
2018-08-08T10:43:25.268Z,5.60
2018-08-08T10:44:25.299Z,5.90
2018-08-08T10:45:25.311Z,5.90
2018-08-08T10:46:25.348Z,6.10
2018-08-08T10:47:25.351Z,5.70
2018-08-08T10:48:25.378Z,5.20
2018-08-08T10:49:25.399Z,6.70
2018-08-08T10:50:25.419Z,5.00
2018-08-08T10:51:25.447Z,7.00
2018-08-08T10:52:25.476Z,5.30
2018-08-08T10:53:25.480Z,5.40
2018-08-08T10:54:25.510Z,6.40
2018-08-08T10:55:25.520Z,5.80
2018-08-08T10:56:25.621Z,5.60
2018-08-08T10:57:25.572Z,6.20
2018-08-08T10:58:25.605Z,5.50
2018-08-08T10:59:25.643Z,5.50
2018-08-08T11:00:25.653Z,5.60
2018-08-08T11:01:25.652Z,7.30
2018-08-08T11:02:25.684Z,5.80
2018-08-08T11:03:25.708Z,5.40
2018-08-08T11:04:25.726Z,5.50
2018-08-08T11:05:25.756Z,5.50
2018-08-08T11:06:25.835Z,5.30
2018-08-08T11:07:25.858Z,5.40
2018-08-08T11:08:25.824Z,6.80
2018-08-08T11:09:25.832Z,5.50
2018-08-08T11:10:25.880Z,5.70
2018-08-08T11:11:25.874Z,6.00
2018-08-08T11:12:25.901Z,6.90
2018-08-08T11:13:25.918Z,5.50
2018-08-08T11:14:25.942Z,5.70
2018-08-08T11:15:25.973Z,6.10
2018-08-08T11:16:25.991Z,5.60
2018-08-08T11:17:26.012Z,6.80
2018-08-08T11:18:26.029Z,5.80
2018-08-08T11:19:26.058Z,5.70
2018-08-08T11:20:26.083Z,5.50
2018-08-08T11:21:26.091Z,5.70
2018-08-08T11:22:26.120Z,5.50
2018-08-08T11:23:26.138Z,5.90
2018-08-08T11:24:26.164Z,5.60
2018-08-08T11:25:26.186Z,6.00
2018-08-08T11:26:26.201Z,5.60
2018-08-08T11:27:26.219Z,5.10
2018-08-08T11:28:26.250Z,5.50
2018-08-08T11:29:26.278Z,5.80
2018-08-08T11:30:26.311Z,5.60
2018-08-08T11:31:26.328Z,5.40
2018-08-08T11:32:26.338Z,6.30
2018-08-08T11:33:26.361Z,5.60
2018-08-08T11:34:26.392Z,6.20
2018-08-08T11:35:26.407Z,5.90
2018-08-08T11:36:26.430Z,5.40
2018-08-08T11:37:26.451Z,5.40
2018-08-08T11:38:26.469Z,5.80
2018-08-08T11:39:26.630Z,5.70
2018-08-08T11:40:26.510Z,5.60
2018-08-08T11:41:26.534Z,5.50
2018-08-08T11:42:26.556Z,5.40
2018-08-08T11:43:26.615Z,5.90
2018-08-08T11:44:26.598Z,5.80
2018-08-08T11:45:26.619Z,5.30
2018-08-08T11:46:26.689Z,5.30
2018-08-08T11:47:26.668Z,5.40
2018-08-08T11:48:26.689Z,6.00
2018-08-08T11:49:26.707Z,5.90
2018-08-08T11:50:26.728Z,6.10
2018-08-08T11:51:26.751Z,5.70
2018-08-08T11:52:26.774Z,6.00
2018-08-08T11:53:26.792Z,5.30
2018-08-08T11:54:26.814Z,6.30
2018-08-08T11:55:26.836Z,6.10
2018-08-08T11:56:26.861Z,5.70
2018-08-08T11:57:26.893Z,5.70
2018-08-08T11:58:26.905Z,6.70
2018-08-08T11:59:26.926Z,5.20
2018-08-08T12:00:26.947Z,5.50
2018-08-08T12:01:26.980Z,6.20
2018-08-08T12:02:26.996Z,5.70
2018-08-08T12:03:27.027Z,5.90
2018-08-08T12:04:27.029Z,6.10
2018-08-08T12:05:27.062Z,5.80
2018-08-08T12:06:27.081Z,5.90
2018-08-08T12:07:27.100Z,5.60
2018-08-08T12:08:27.136Z,5.60
2018-08-08T12:09:27.149Z,6.00
2018-08-08T12:10:27.159Z,5.60
2018-08-08T12:11:27.185Z,5.70
2018-08-08T12:12:27.209Z,5.60
2018-08-08T12:13:27.235Z,5.50
2018-08-08T12:14:27.253Z,5.70
2018-08-08T12:15:27.278Z,6.00
2018-08-08T12:16:27.299Z,6.10
2018-08-08T12:17:27.317Z,6.00
2018-08-08T12:18:27.357Z,5.70
2018-08-08T12:19:27.366Z,5.90
2018-08-08T12:20:27.386Z,5.70
2018-08-08T12:21:27.404Z,5.80
2018-08-08T12:22:27.427Z,6.20
2018-08-08T12:23:27.452Z,5.40
2018-08-08T12:24:27.467Z,6.30
2018-08-08T12:25:27.574Z,6.10
2018-08-08T12:26:27.514Z,5.80
2018-08-08T12:27:27.541Z,6.30
2018-08-08T12:28:27.569Z,6.10
2018-08-08T12:29:27.573Z,6.00
2018-08-08T12:30:27.598Z,5.60
2018-08-08T12:31:27.642Z,5.90
2018-08-08T12:32:27.646Z,5.50
2018-08-08T12:33:27.672Z,6.10
2018-08-08T12:34:27.812Z,5.70
2018-08-08T12:35:27.799Z,6.10
2018-08-08T12:36:27.729Z,6.20
2018-08-08T12:37:27.760Z,6.00
2018-08-08T12:38:27.776Z,5.80
2018-08-08T12:39:27.801Z,5.60
2018-08-08T12:40:27.846Z,6.40
2018-08-08T12:41:27.842Z,5.60
2018-08-08T12:42:27.873Z,6.00
2018-08-08T12:43:27.885Z,5.90
2018-08-08T12:44:27.912Z,6.00
2018-08-08T12:45:27.929Z,5.70
2018-08-08T12:46:27.949Z,6.00
2018-08-08T12:47:27.968Z,6.80
2018-08-08T12:48:28.002Z,6.00
2018-08-08T12:49:28.016Z,5.90
2018-08-08T12:50:28.045Z,5.80
2018-08-08T12:51:28.139Z,6.00
2018-08-08T12:52:28.082Z,6.00
2018-08-08T12:53:28.149Z,6.10
2018-08-08T12:54:28.124Z,6.30
2018-08-08T12:55:28.151Z,6.00
2018-08-08T12:56:28.168Z,5.70
2018-08-08T12:57:28.203Z,5.70
2018-08-08T12:58:28.213Z,6.10
2018-08-08T12:59:28.239Z,5.90
2018-08-08T13:00:28.262Z,6.20
2018-08-08T13:01:28.286Z,5.70
2018-08-08T13:02:28.307Z,5.90
2018-08-08T13:03:28.322Z,6.00
2018-08-08T13:04:28.340Z,5.80
2018-08-08T13:05:28.378Z,5.70
2018-08-08T13:06:28.392Z,5.80
2018-08-08T13:07:28.404Z,5.70
2018-08-08T13:08:28.489Z,6.10
2018-08-08T13:09:28.453Z,5.80
2018-08-08T13:10:28.474Z,6.00
2018-08-08T13:11:28.496Z,5.70
2018-08-08T13:12:28.515Z,5.70
2018-08-08T13:13:28.546Z,6.00
2018-08-08T13:14:28.567Z,6.30
2018-08-08T13:15:28.587Z,5.90
2018-08-08T13:16:28.609Z,6.10
2018-08-08T13:17:28.628Z,5.90
2018-08-08T13:18:28.647Z,5.40
2018-08-08T13:19:28.671Z,6.30
2018-08-08T13:20:28.696Z,5.90
2018-08-08T13:21:28.718Z,5.60
2018-08-08T13:22:28.742Z,6.00
2018-08-08T13:23:28.819Z,6.60
2018-08-08T13:24:28.784Z,6.20
2018-08-08T13:25:28.814Z,6.40
2018-08-08T13:26:28.845Z,6.10
2018-08-08T13:27:28.916Z,6.20
2018-08-08T13:28:28.889Z,6.60
2018-08-08T13:29:28.992Z,6.20
2018-08-08T13:30:28.919Z,6.30
2018-08-08T13:31:28.955Z,5.90
2018-08-08T13:32:28.976Z,5.80
2018-08-08T13:33:28.984Z,6.40
2018-08-08T13:34:29.025Z,6.60
2018-08-08T13:35:29.028Z,5.90
2018-08-08T13:36:29.093Z,6.30
2018-08-08T13:37:29.064Z,6.20
2018-08-08T13:38:29.084Z,6.30
2018-08-08T13:39:29.128Z,5.90
2018-08-08T13:40:29.135Z,5.80
2018-08-08T13:41:29.160Z,5.90
2018-08-08T13:42:29.186Z,5.80
2018-08-08T13:43:29.199Z,6.00
2018-08-08T13:44:29.260Z,5.70
2018-08-08T13:45:29.314Z,6.10
2018-08-08T13:46:29.266Z,6.00
2018-08-08T13:47:29.291Z,6.10
2018-08-08T13:48:29.320Z,6.10
2018-08-08T13:49:29.338Z,6.00
2018-08-08T13:50:29.349Z,6.00
2018-08-08T13:51:29.384Z,6.40
2018-08-08T13:52:29.407Z,6.30
2018-08-08T13:53:29.427Z,6.30
2018-08-08T13:54:29.438Z,6.30
2018-08-08T13:55:29.467Z,5.80
2018-08-08T13:56:29.489Z,6.10
2018-08-08T13:57:29.540Z,6.50
2018-08-08T13:58:29.533Z,5.90
2018-08-08T13:59:29.548Z,6.20
2018-08-08T14:00:29.583Z,6.20
2018-08-08T14:01:29.654Z,6.20
2018-08-08T14:02:29.621Z,6.30
2018-08-08T14:03:29.676Z,6.00
2018-08-08T14:04:29.662Z,6.20
2018-08-08T14:05:29.677Z,6.30
2018-08-08T14:06:29.708Z,5.90
2018-08-08T14:07:29.723Z,5.80
2018-08-08T14:08:29.742Z,6.00
2018-08-08T14:09:29.782Z,5.90
2018-08-08T14:10:29.790Z,6.30
2018-08-08T14:11:29.802Z,6.10
2018-08-08T14:12:29.827Z,6.00
2018-08-08T14:13:29.861Z,6.00
2018-08-08T14:14:29.883Z,5.90
2018-08-08T14:15:29.904Z,5.70
2018-08-08T14:16:29.932Z,6.20
2018-08-08T14:17:29.945Z,6.00
2018-08-08T14:18:30.020Z,5.90
2018-08-08T14:19:29.982Z,5.80
2018-08-08T14:20:30.020Z,5.90
2018-08-08T14:21:30.036Z,6.20
2018-08-08T14:22:30.050Z,6.30
2018-08-08T14:23:30.087Z,5.60
2018-08-08T14:24:30.097Z,5.80
2018-08-08T14:25:30.120Z,5.70
2018-08-08T14:26:30.136Z,5.90
2018-08-08T14:27:30.167Z,6.20
2018-08-08T14:28:30.195Z,6.00
2018-08-08T14:29:30.207Z,5.90
2018-08-08T14:30:30.231Z,5.80
2018-08-08T14:31:30.251Z,6.30
2018-08-08T14:32:30.274Z,5.80
2018-08-08T14:33:30.291Z,6.00
2018-08-08T14:34:30.325Z,5.70
2018-08-08T14:35:30.385Z,6.10
2018-08-08T14:36:30.368Z,6.20
2018-08-08T14:37:30.373Z,6.00
2018-08-08T14:38:30.400Z,5.70
2018-08-08T14:39:30.434Z,5.60
2018-08-08T14:40:30.447Z,5.80
2018-08-08T14:41:30.474Z,5.70
2018-08-08T14:42:30.493Z,6.00
2018-08-08T14:43:30.514Z,5.90
2018-08-08T14:44:30.533Z,5.90
2018-08-08T14:45:30.557Z,5.60
2018-08-08T14:46:30.575Z,5.80
2018-08-08T14:47:30.603Z,5.90
2018-08-08T14:48:30.630Z,5.90
2018-08-08T14:49:30.650Z,5.70
2018-08-08T14:50:30.679Z,5.70
2018-08-08T14:51:30.690Z,5.90
2018-08-08T14:52:30.713Z,6.00
2018-08-08T14:53:30.731Z,5.90
2018-08-08T14:54:30.756Z,5.80
2018-08-08T14:55:30.774Z,6.10
2018-08-08T14:56:30.805Z,5.90
2018-08-08T14:57:30.819Z,6.10
2018-08-08T14:58:30.839Z,5.70
2018-08-08T14:59:30.861Z,5.80
2018-08-08T15:00:30.890Z,5.80
2018-08-08T15:01:30.902Z,6.00
2018-08-08T15:02:30.926Z,5.80
2018-08-08T15:03:30.956Z,5.90
2018-08-08T15:04:30.971Z,6.00
2018-08-08T15:05:30.988Z,6.20
2018-08-08T15:06:31.013Z,5.80
2018-08-08T15:07:31.046Z,5.80
2018-08-08T15:08:31.062Z,6.10
2018-08-08T15:09:31.083Z,6.10
2018-08-08T15:10:31.100Z,5.80
2018-08-08T15:11:31.129Z,6.10
2018-08-08T15:12:31.156Z,5.90
2018-08-08T15:13:31.170Z,5.90
2018-08-08T15:14:31.198Z,5.90
2018-08-08T15:15:31.209Z,5.50
2018-08-08T15:16:31.234Z,6.20
2018-08-08T15:17:31.277Z,5.90
2018-08-08T15:18:31.283Z,5.90
2018-08-08T15:19:31.323Z,5.40
2018-08-08T15:20:31.322Z,5.60
2018-08-08T15:21:31.355Z,6.10
2018-08-08T15:22:31.366Z,5.80
2018-08-08T15:23:31.408Z,5.90
2018-08-08T15:24:31.415Z,5.80
2018-08-08T15:25:31.435Z,5.90
2018-08-08T15:26:31.451Z,5.90
2018-08-08T15:27:31.476Z,5.80
2018-08-08T15:28:31.498Z,6.00
2018-08-08T15:29:31.521Z,6.00
2018-08-08T15:30:31.539Z,5.80
2018-08-08T15:31:31.580Z,6.30
2018-08-08T15:32:31.583Z,5.70
2018-08-08T15:33:31.605Z,5.50
2018-08-08T15:34:31.632Z,6.10
2018-08-08T15:35:31.654Z,6.10
2018-08-08T15:36:31.808Z,5.90
2018-08-08T15:37:31.962Z,5.90
2018-08-08T15:38:31.725Z,5.80
2018-08-08T15:39:31.739Z,5.70
2018-08-08T15:40:31.755Z,5.60
2018-08-08T15:41:31.777Z,5.80
2018-08-08T15:42:31.813Z,6.20
2018-08-08T15:43:31.832Z,5.80
2018-08-08T15:44:31.850Z,5.90
2018-08-08T15:45:31.867Z,5.90
2018-08-08T15:46:31.890Z,5.60
2018-08-08T15:47:31.909Z,6.00
2018-08-08T15:48:31.929Z,6.30
2018-08-08T15:49:31.960Z,5.90
2018-08-08T15:50:31.980Z,5.70
2018-08-08T15:51:32.008Z,5.70
2018-08-08T15:52:32.023Z,5.50
2018-08-08T15:53:32.041Z,5.70
2018-08-08T15:54:32.060Z,5.90
2018-08-08T15:55:32.093Z,5.70
2018-08-08T15:56:32.111Z,5.90
2018-08-08T15:57:32.132Z,6.00
2018-08-08T15:58:32.154Z,6.10
2018-08-08T15:59:32.183Z,5.90
2018-08-08T16:00:32.197Z,5.70
2018-08-08T16:01:32.221Z,6.00
2018-08-08T16:02:32.358Z,5.50
2018-08-08T16:03:32.267Z,6.00
2018-08-08T16:04:32.281Z,5.70
2018-08-08T16:05:32.307Z,5.80
2018-08-08T16:06:32.340Z,6.10
2018-08-08T16:07:32.359Z,5.50
2018-08-08T16:08:32.369Z,5.80
2018-08-08T16:09:32.401Z,5.90
2018-08-08T16:10:32.422Z,5.50
2018-08-08T16:11:32.439Z,5.50
2018-08-08T16:12:32.461Z,5.80
2018-08-08T16:13:32.503Z,6.00
2018-08-08T16:14:32.525Z,5.90
2018-08-08T16:15:32.526Z,5.70
2018-08-08T16:16:32.550Z,5.80
2018-08-08T16:17:32.575Z,6.00
2018-08-08T16:18:32.593Z,6.00
2018-08-08T16:19:32.606Z,5.50
2018-08-08T16:20:32.634Z,5.90
2018-08-08T16:21:32.661Z,5.80
2018-08-08T16:22:32.682Z,5.70
2018-08-08T16:23:32.727Z,5.90
2018-08-08T16:24:32.723Z,5.70
2018-08-08T16:25:32.746Z,5.50
2018-08-08T16:26:32.763Z,5.80
2018-08-08T16:27:32.788Z,5.60
2018-08-08T16:28:32.808Z,5.40
2018-08-08T16:29:32.825Z,5.60
2018-08-08T16:30:32.869Z,5.60
2018-08-08T16:31:32.882Z,5.10
2018-08-08T16:32:32.897Z,5.60
2018-08-08T16:33:32.921Z,5.50
2018-08-08T16:34:32.938Z,5.50
2018-08-08T16:35:32.963Z,5.90
2018-08-08T16:36:32.983Z,5.80
2018-08-08T16:37:33.033Z,5.40
2018-08-08T16:38:33.086Z,5.50
2018-08-08T16:39:33.071Z,5.80
2018-08-08T16:40:33.087Z,5.50
2018-08-08T16:41:33.102Z,5.60
2018-08-08T16:42:33.123Z,5.90
2018-08-08T16:43:33.142Z,5.70
2018-08-08T16:44:33.165Z,5.60
2018-08-08T16:45:33.186Z,5.40
2018-08-08T16:46:33.231Z,5.70
2018-08-08T16:47:33.226Z,5.30
2018-08-08T16:48:33.259Z,5.60
2018-08-08T16:49:33.275Z,5.90
2018-08-08T16:50:33.289Z,5.90
2018-08-08T16:51:33.328Z,5.50
2018-08-08T16:52:33.410Z,5.90
2018-08-08T16:53:33.369Z,5.70
2018-08-08T16:54:33.382Z,5.70
2018-08-08T16:55:33.415Z,5.60
2018-08-08T16:56:33.416Z,5.50
2018-08-08T16:57:33.440Z,5.50
2018-08-08T16:58:33.468Z,5.90
2018-08-08T16:59:33.493Z,5.90
2018-08-08T17:00:33.513Z,5.80
2018-08-08T17:01:33.543Z,5.60
2018-08-08T17:02:33.578Z,5.50
2018-08-08T17:03:33.585Z,6.00
2018-08-08T17:04:33.596Z,5.50
2018-08-08T17:05:33.621Z,5.50
2018-08-08T17:06:33.650Z,5.30
2018-08-08T17:07:33.767Z,5.60
2018-08-08T17:08:33.726Z,5.50
2018-08-08T17:09:33.723Z,5.90
2018-08-08T17:10:33.745Z,5.30
2018-08-08T17:11:33.761Z,5.90
2018-08-08T17:12:33.789Z,5.60
2018-08-08T17:13:33.804Z,5.50
2018-08-08T17:14:33.825Z,5.80
2018-08-08T17:15:33.846Z,5.70
2018-08-08T17:16:33.868Z,5.60
2018-08-08T17:17:33.880Z,5.40
2018-08-08T17:18:33.906Z,6.00
2018-08-08T17:19:33.930Z,5.80
2018-08-08T17:20:34.010Z,5.70
2018-08-08T17:21:33.973Z,5.70
2018-08-08T17:22:34.002Z,5.70
2018-08-08T17:23:34.020Z,5.90
2018-08-08T17:24:34.054Z,5.70
2018-08-08T17:25:34.104Z,5.80
2018-08-08T17:26:34.084Z,5.70
2018-08-08T17:27:34.108Z,5.30
2018-08-08T17:28:34.130Z,5.30
2018-08-08T17:29:34.151Z,5.40
2018-08-08T17:30:34.170Z,5.50
2018-08-08T17:31:34.189Z,5.80
2018-08-08T17:32:34.215Z,5.70
2018-08-08T17:33:34.244Z,5.80
2018-08-08T17:34:34.257Z,5.60
2018-08-08T17:35:34.297Z,5.60
2018-08-08T17:36:34.299Z,5.80
2018-08-08T17:37:34.329Z,6.00
2018-08-08T17:38:34.344Z,5.80
2018-08-08T17:39:34.372Z,5.90
2018-08-08T17:40:34.389Z,5.40
2018-08-08T17:41:34.415Z,5.30
2018-08-08T17:42:34.432Z,5.80
2018-08-08T17:43:34.744Z,5.30
2018-08-08T17:44:34.479Z,5.70
2018-08-08T17:45:34.499Z,5.40
2018-08-08T17:46:34.524Z,5.60
2018-08-08T17:47:34.543Z,6.10
2018-08-08T17:48:34.568Z,5.60
2018-08-08T17:49:34.608Z,5.90
2018-08-08T17:50:34.614Z,5.80
2018-08-08T17:51:34.634Z,5.60
2018-08-08T17:52:34.648Z,5.80
2018-08-08T17:53:34.679Z,5.60
2018-08-08T17:54:34.690Z,5.70
2018-08-08T17:55:34.749Z,5.40
2018-08-08T17:56:34.744Z,5.70
2018-08-08T17:57:34.765Z,6.00
2018-08-08T17:58:34.786Z,6.00
2018-08-08T17:59:34.806Z,5.70
2018-08-08T18:00:34.831Z,5.70
2018-08-08T18:01:34.870Z,5.50
2018-08-08T18:02:34.874Z,5.50
2018-08-08T18:03:34.894Z,5.80
2018-08-08T18:04:34.912Z,5.50
2018-08-08T18:05:34.942Z,6.00
2018-08-08T18:06:34.955Z,5.80
2018-08-08T18:07:35.031Z,5.60
2018-08-08T18:08:35.001Z,5.30
2018-08-08T18:09:35.030Z,5.50
2018-08-08T18:10:35.050Z,6.00
2018-08-08T18:11:35.077Z,5.70
2018-08-08T18:12:35.103Z,5.60
2018-08-08T18:13:35.114Z,5.50
2018-08-08T18:14:35.189Z,5.80
2018-08-08T18:15:35.210Z,5.50
2018-08-08T18:16:35.194Z,5.40
2018-08-08T18:17:35.205Z,5.40
2018-08-08T18:18:35.217Z,5.50
2018-08-08T18:19:35.257Z,5.70
2018-08-08T18:20:35.270Z,5.40
2018-08-08T18:21:35.289Z,5.30
2018-08-08T18:22:35.319Z,5.30
2018-08-08T18:23:35.339Z,5.50
2018-08-08T18:24:35.356Z,5.40
2018-08-08T18:25:35.397Z,5.40
2018-08-08T18:26:35.477Z,5.70
2018-08-08T18:27:35.480Z,5.50
2018-08-08T18:28:35.442Z,5.40
2018-08-08T18:29:35.467Z,5.30
2018-08-08T18:30:35.499Z,5.40
2018-08-08T18:31:35.570Z,5.40
2018-08-08T18:32:35.530Z,5.20
2018-08-08T18:33:35.558Z,5.70
2018-08-08T18:34:35.580Z,5.70
2018-08-08T18:35:35.601Z,5.80
2018-08-08T18:36:35.647Z,5.70
2018-08-08T18:37:35.694Z,5.50
2018-08-08T18:38:35.664Z,5.30
2018-08-08T18:39:35.685Z,5.70
2018-08-08T18:40:35.709Z,5.40
2018-08-08T18:41:35.741Z,5.60
2018-08-08T18:42:35.748Z,5.30